Time;durP1;ratioP1;P1;durP2;ratioP2;P2;SDS_P1;SDS_P2;PMS_P1;PMS_P2;Temp;Humidity;BMP_temperature;BMP_pressure;BME280_temperature;BME280_humidity;BME280_pressure;Samples;Min_cycle;Max_cycle;Signal;HPM_P1;HPM_P2
2023/09/14 00:00:13;;;;;;;9.90;2.85;;;;;;;;;;5050799;28;20041;-74
2023/09/14 00:02:39;;;;;;;9.38;2.80;;;;;;;;;;5054923;28;20054;-74
2023/09/14 00:05:05;;;;;;;8.90;2.42;;;;;;;;;;5056443;28;20025;-73
2023/09/14 00:07:32;;;;;;;12.98;3.17;;;;;;;;;;5050634;28;20108;-73
2023/09/14 00:09:58;;;;;;;14.32;2.65;;;;;;;;;;5050500;28;20047;-73
2023/09/14 00:12:24;;;;;;;8.55;2.58;;;;;;;;;;5051717;28;20097;-74
2023/09/14 00:14:50;;;;;;;11.43;2.65;;;;;;;;;;5055534;28;20040;-73
2023/09/14 00:17:16;;;;;;;13.07;2.53;;;;;;;;;;5055492;28;20083;-73
2023/09/14 00:19:42;;;;;;;12.82;3.17;;;;;;;;;;5055553;28;20414;-74
2023/09/14 00:22:09;;;;;;;10.88;2.63;;;;;;;;;;5055900;28;20079;-73
2023/09/14 00:24:36;;;;;;;14.05;3.38;;;;;;;;;;5055705;28;20040;-73
2023/09/14 00:27:03;;;;;;;10.05;3.10;;;;;;;;;;5055839;28;20036;-72
2023/09/14 00:29:29;;;;;;;8.90;3.40;;;;;;;;;;5055482;28;20029;-74
2023/09/14 00:31:55;;;;;;;13.45;2.53;;;;;;;;;;5055719;28;20021;-73
2023/09/14 00:34:22;;;;;;;11.68;3.25;;;;;;;;;;5055283;28;20494;-74
2023/09/14 00:36:47;;;;;;;14.55;2.92;;;;;;;;;;5055622;28;20071;-73
2023/09/14 00:39:13;;;;;;;8.20;2.63;;;;;;;;;;5055423;28;20112;-73
2023/09/14 00:41:41;;;;;;;14.02;4.45;;;;;;;;;;5055776;28;20029;-73
2023/09/14 00:44:07;;;;;;;19.95;4.70;;;;;;;;;;5055829;28;20112;-72
2023/09/14 00:46:33;;;;;;;13.18;2.83;;;;;;;;;;5055801;28;20455;-74
2023/09/14 00:49:00;;;;;;;8.27;2.40;;;;;;;;;;5056260;28;20238;-73
2023/09/14 00:51:29;;;;;;;11.65;2.90;;;;;;;;;;5056459;28;20467;-73
2023/09/14 00:53:56;;;;;;;8.25;2.38;;;;;;;;;;5055303;28;20036;-73
2023/09/14 00:56:22;;;;;;;12.07;2.65;;;;;;;;;;5055039;28;20101;-73
2023/09/14 00:58:48;;;;;;;9.98;2.78;;;;;;;;;;5055024;28;20032;-73
2023/09/14 01:01:14;;;;;;;9.93;2.83;;;;;;;;;;5054842;28;20021;-74
2023/09/14 01:03:41;;;;;;;13.68;2.53;;;;;;;;;;5053920;28;20033;-74
2023/09/14 01:06:07;;;;;;;7.72;2.13;;;;;;;;;;5054752;28;20025;-73
2023/09/14 01:08:33;;;;;;;8.05;2.58;;;;;;;;;;5054787;28;20054;-74
2023/09/14 01:11:00;;;;;;;9.38;2.38;;;;;;;;;;5054588;28;20029;-75
2023/09/14 01:13:38;;;;;;;10.40;2.40;;;;;;;;;;5054370;28;20021;-73
2023/09/14 01:16:08;;;;;;;10.15;2.75;;;;;;;;;;5054575;28;20159;-74
2023/09/14 01:18:42;;;;;;;11.95;2.72;;;;;;;;;;5054584;28;20464;-73
2023/09/14 01:21:08;;;;;;;;;;;;;;;;;;5055015;28;20074;-74
2023/09/14 01:23:43;;;;;;;7.88;2.30;;;;;;;;;;5053880;28;19993;-72
2023/09/14 01:26:09;;;;;;;10.02;2.30;;;;;;;;;;5055130;28;20043;-73
2023/09/14 01:28:35;;;;;;;5.75;2.17;;;;;;;;;;5054326;28;20039;-73
2023/09/14 01:31:02;;;;;;;9.90;2.22;;;;;;;;;;5054156;28;20099;-73
2023/09/14 01:33:29;;;;;;;7.40;2.95;;;;;;;;;;5053966;28;20033;-74
2023/09/14 01:36:14;;;;;;;6.63;1.98;;;;;;;;;;5054223;28;20549;-74
2023/09/14 01:38:41;;;;;;;7.00;2.00;;;;;;;;;;5054120;28;20052;-73
2023/09/14 01:41:07;;;;;;;10.15;2.03;;;;;;;;;;5053854;28;20116;-72
2023/09/14 01:43:34;;;;;;;10.10;2.00;;;;;;;;;;5053689;28;20476;-73
2023/09/14 01:46:01;;;;;;;10.77;2.20;;;;;;;;;;5053854;28;20039;-73
2023/09/14 01:48:27;;;;;;;8.98;2.13;;;;;;;;;;5053836;28;20037;-72
2023/09/14 01:50:53;;;;;;;7.97;2.40;;;;;;;;;;5053823;28;20025;-75
2023/09/14 01:53:19;;;;;;;14.90;2.38;;;;;;;;;;5053725;28;20021;-73
2023/09/14 01:55:45;;;;;;;11.32;2.40;;;;;;;;;;5053752;28;20549;-73
2023/09/14 01:58:12;;;;;;;13.55;2.50;;;;;;;;;;5053948;28;20025;-73
2023/09/14 02:00:38;;;;;;;8.13;2.22;;;;;;;;;;5053730;28;20028;-73
2023/09/14 02:03:07;;;;;;;8.77;2.47;;;;;;;;;;5053534;28;20025;-73
2023/09/14 02:05:33;;;;;;;8.60;2.33;;;;;;;;;;5053511;28;20044;-73
2023/09/14 02:07:59;;;;;;;7.78;2.25;;;;;;;;;;5053541;28;20026;-72
2023/09/14 02:10:25;;;;;;;8.57;2.90;;;;;;;;;;5053280;28;20017;-73
2023/09/14 02:12:51;;;;;;;6.95;1.98;;;;;;;;;;5053287;28;20490;-73
2023/09/14 02:15:17;;;;;;;13.75;3.05;;;;;;;;;;5053239;28;20017;-73
2023/09/14 02:17:43;;;;;;;10.23;2.78;;;;;;;;;;5053191;28;20017;-73
2023/09/14 02:20:09;;;;;;;11.85;2.90;;;;;;;;;;5053460;28;20111;-73
2023/09/14 02:22:35;;;;;;;9.98;2.83;;;;;;;;;;5053390;28;20422;-72
2023/09/14 02:25:02;;;;;;;8.50;2.30;;;;;;;;;;5053124;28;20105;-72
2023/09/14 02:27:28;;;;;;;11.05;2.30;;;;;;;;;;5053147;28;20472;-72
2023/09/14 02:29:57;;;;;;;14.63;2.35;;;;;;;;;;5053018;28;20025;-73
2023/09/14 02:32:23;;;;;;;8.55;2.08;;;;;;;;;;5052804;28;20044;-73
2023/09/14 02:34:49;;;;;;;8.63;2.30;;;;;;;;;;5052254;28;20494;-73
2023/09/14 02:37:16;;;;;;;9.13;2.28;;;;;;;;;;5052637;28;20021;-74
2023/09/14 02:39:42;;;;;;;5.82;2.03;;;;;;;;;;5053032;28;20029;-74
2023/09/14 02:42:08;;;;;;;6.40;2.10;;;;;;;;;;5053243;28;20032;-74
2023/09/14 02:44:36;;;;;;;10.40;2.50;;;;;;;;;;5052602;28;20066;-72
2023/09/14 02:47:02;;;;;;;11.50;2.28;;;;;;;;;;5052807;28;20166;-73
2023/09/14 02:49:28;;;;;;;5.80;2.17;;;;;;;;;;5052705;28;20025;-74
2023/09/14 02:51:54;;;;;;;6.63;2.20;;;;;;;;;;5052593;28;20097;-74
2023/09/14 02:54:20;;;;;;;10.23;2.58;;;;;;;;;;5052199;28;20091;-73
2023/09/14 02:56:47;;;;;;;8.50;2.10;;;;;;;;;;5052532;28;20063;-73
2023/09/14 02:59:15;;;;;;;11.13;2.65;;;;;;;;;;5052194;28;20025;-72
2023/09/14 03:01:43;;;;;;;10.80;3.75;;;;;;;;;;5052073;28;20025;-74
2023/09/14 03:04:09;;;;;;;11.13;2.97;;;;;;;;;;5052358;28;20032;-73
2023/09/14 03:06:35;;;;;;;10.25;2.78;;;;;;;;;;5052560;28;20414;-72
2023/09/14 03:09:01;;;;;;;9.68;2.45;;;;;;;;;;5052295;28;20064;-73
2023/09/14 03:11:27;;;;;;;8.75;2.92;;;;;;;;;;5052268;28;20079;-72
2023/09/14 03:13:53;;;;;;;7.70;2.30;;;;;;;;;;5052091;28;20102;-73
2023/09/14 03:16:19;;;;;;;9.65;2.45;;;;;;;;;;5052191;28;20105;-73
2023/09/14 03:18:46;;;;;;;9.40;2.10;;;;;;;;;;5052210;28;20100;-72
2023/09/14 03:21:27;;;;;;;9.77;2.47;;;;;;;;;;5052054;28;20025;-74
2023/09/14 03:23:54;;;;;;;11.48;4.47;;;;;;;;;;5052236;28;20031;-73
2023/09/14 03:26:20;;;;;;;16.02;3.85;;;;;;;;;;5051510;28;20040;-73
2023/09/14 03:28:46;;;;;;;6.75;2.53;;;;;;;;;;5051512;28;20096;-74
2023/09/14 03:31:12;;;;;;;8.38;2.70;;;;;;;;;;5052213;28;20029;-73
2023/09/14 03:33:38;;;;;;;9.15;2.17;;;;;;;;;;5051832;28;20517;-74
2023/09/14 03:36:05;;;;;;;14.07;2.70;;;;;;;;;;5052191;28;20025;-72
2023/09/14 03:38:31;;;;;;;7.75;2.03;;;;;;;;;;5051827;28;20025;-73
2023/09/14 03:40:57;;;;;;;7.55;2.42;;;;;;;;;;5051623;28;20033;-74
2023/09/14 03:43:23;;;;;;;11.73;4.15;;;;;;;;;;5051946;28;20433;-75
2023/09/14 03:45:49;;;;;;;9.02;3.53;;;;;;;;;;5052168;28;20020;-72
2023/09/14 03:48:15;;;;;;;14.52;2.70;;;;;;;;;;5051431;28;20415;-71
2023/09/14 03:50:41;;;;;;;7.72;2.38;;;;;;;;;;5051555;28;20033;-72
2023/09/14 03:53:08;;;;;;;5.97;2.40;;;;;;;;;;5051524;28;20024;-71
2023/09/14 03:55:34;;;;;;;7.97;2.88;;;;;;;;;;5051658;28;20029;-72
2023/09/14 03:58:00;;;;;;;11.38;2.67;;;;;;;;;;5051404;28;20051;-71
2023/09/14 04:00:26;;;;;;;6.50;2.30;;;;;;;;;;5051377;28;20365;-72
2023/09/14 04:02:52;;;;;;;13.35;3.88;;;;;;;;;;5051133;28;20092;-71
2023/09/14 04:05:18;;;;;;;12.10;5.13;;;;;;;;;;5051374;28;20100;-71
2023/09/14 04:07:45;;;;;;;8.93;3.05;;;;;;;;;;5051701;28;20074;-71
2023/09/14 04:10:11;;;;;;;5.65;2.15;;;;;;;;;;5051834;28;20039;-72
2023/09/14 04:12:41;;;;;;;8.95;2.35;;;;;;;;;;5052116;28;20471;-71
2023/09/14 04:15:07;;;;;;;7.20;2.55;;;;;;;;;;5053631;28;20024;-71
2023/09/14 04:17:33;;;;;;;7.43;2.58;;;;;;;;;;5052288;28;20025;-72
2023/09/14 04:19:59;;;;;;;13.55;4.00;;;;;;;;;;5056620;28;20029;-71
2023/09/14 04:22:25;;;;;;;18.30;10.88;;;;;;;;;;5051484;28;20028;-74
2023/09/14 04:24:51;;;;;;;9.18;3.35;;;;;;;;;;5052951;28;20032;-73
2023/09/14 04:27:17;;;;;;;8.60;2.40;;;;;;;;;;5051783;28;20457;-70
2023/09/14 04:29:44;;;;;;;8.68;2.40;;;;;;;;;;5051164;28;20025;-72
2023/09/14 04:32:10;;;;;;;10.25;2.90;;;;;;;;;;5051186;28;20013;-71
2023/09/14 04:34:36;;;;;;;5.40;2.17;;;;;;;;;;5048469;28;20025;-74
2023/09/14 04:37:03;;;;;;;12.23;2.55;;;;;;;;;;5053322;28;20450;-74
2023/09/14 04:39:29;;;;;;;4.70;1.95;;;;;;;;;;5066325;28;20048;-74
2023/09/14 04:41:58;;;;;;;8.65;3.25;;;;;;;;;;5063260;28;20042;-76
2023/09/14 04:44:24;;;;;;;10.43;4.78;;;;;;;;;;5065102;28;20033;-76
2023/09/14 04:46:50;;;;;;;8.02;2.70;;;;;;;;;;5056963;28;20029;-77
2023/09/14 04:49:16;;;;;;;9.48;2.42;;;;;;;;;;5068246;28;20060;-76
2023/09/14 04:51:42;;;;;;;8.57;2.47;;;;;;;;;;5061012;28;20029;-76
2023/09/14 04:54:08;;;;;;;11.73;5.00;;;;;;;;;;5051021;28;20088;-72
2023/09/14 04:56:34;;;;;;;8.85;3.30;;;;;;;;;;5051201;28;20147;-71
2023/09/14 04:59:02;;;;;;;11.55;3.42;;;;;;;;;;5052361;28;20483;-76
2023/09/14 05:01:27;;;;;;;8.32;3.25;;;;;;;;;;5055759;28;20024;-70
2023/09/14 05:03:53;;;;;;;10.82;3.55;;;;;;;;;;5056264;28;20494;-73
2023/09/14 05:06:19;;;;;;;9.63;3.83;;;;;;;;;;5055937;28;20028;-72
2023/09/14 05:08:45;;;;;;;11.13;3.58;;;;;;;;;;5055315;28;20131;-74
2023/09/14 05:11:11;;;;;;;15.15;7.32;;;;;;;;;;5056103;28;20021;-75
2023/09/14 05:13:40;;;;;;;16.35;6.70;;;;;;;;;;5054886;28;20025;-74
2023/09/14 05:16:06;;;;;;;10.45;4.78;;;;;;;;;;5054759;28;20029;-71
2023/09/14 05:18:32;;;;;;;11.13;3.72;;;;;;;;;;5054538;28;20052;-72
2023/09/14 05:20:58;;;;;;;12.00;5.32;;;;;;;;;;5053998;28;20107;-73
2023/09/14 05:23:24;;;;;;;10.90;3.65;;;;;;;;;;5054119;28;20460;-75
2023/09/14 05:25:50;;;;;;;8.52;3.50;;;;;;;;;;5057041;28;20040;-71
2023/09/14 05:28:16;;;;;;;9.10;4.03;;;;;;;;;;5054677;28;20043;-74
2023/09/14 05:30:43;;;;;;;6.60;2.83;;;;;;;;;;5055455;28;20463;-73
2023/09/14 05:33:09;;;;;;;6.03;2.80;;;;;;;;;;5054598;28;20097;-72
2023/09/14 05:35:36;;;;;;;22.95;11.60;;;;;;;;;;5055459;28;20024;-73
2023/09/14 05:38:02;;;;;;;13.23;4.32;;;;;;;;;;5054547;28;20025;-72
2023/09/14 05:40:28;;;;;;;12.35;3.45;;;;;;;;;;5054198;28;20056;-73
2023/09/14 05:42:54;;;;;;;7.32;3.45;;;;;;;;;;5053377;28;20028;-73
2023/09/14 05:45:20;;;;;;;11.50;3.50;;;;;;;;;;5053808;28;20025;-71
2023/09/14 05:47:46;;;;;;;9.93;2.83;;;;;;;;;;5053709;28;20475;-72
2023/09/14 05:50:12;;;;;;;8.65;2.75;;;;;;;;;;5050608;28;20067;-72
2023/09/14 05:52:38;;;;;;;7.30;3.00;;;;;;;;;;5057572;28;20021;-71
2023/09/14 05:55:04;;;;;;;12.65;2.78;;;;;;;;;;5055818;28;20029;-71
2023/09/14 05:57:31;;;;;;;12.50;3.30;;;;;;;;;;5067711;28;20020;-72
2023/09/14 05:59:57;;;;;;;10.73;2.95;;;;;;;;;;5062826;28;20036;-72
2023/09/14 06:02:24;;;;;;;10.18;3.40;;;;;;;;;;5054773;28;20028;-72
2023/09/14 06:04:50;;;;;;;12.55;3.15;;;;;;;;;;5067483;28;20033;-71
2023/09/14 06:07:17;;;;;;;17.50;3.60;;;;;;;;;;5068058;28;20048;-72
2023/09/14 06:09:43;;;;;;;10.90;3.35;;;;;;;;;;5064384;28;20029;-75
2023/09/14 06:12:09;;;;;;;22.65;4.72;;;;;;;;;;5052470;28;20588;-72
2023/09/14 06:14:37;;;;;;;14.65;4.85;;;;;;;;;;5053234;28;20025;-71
2023/09/14 06:17:03;;;;;;;16.27;5.28;;;;;;;;;;5053380;28;20086;-73
2023/09/14 06:19:29;;;;;;;15.27;3.92;;;;;;;;;;5053358;28;20028;-72
2023/09/14 06:21:55;;;;;;;16.90;5.47;;;;;;;;;;5053597;28;20029;-72
2023/09/14 06:24:21;;;;;;;12.57;4.93;;;;;;;;;;5053598;28;20741;-72
2023/09/14 06:26:48;;;;;;;7.65;3.15;;;;;;;;;;5053466;28;20693;-72
2023/09/14 06:29:16;;;;;;;12.25;4.43;;;;;;;;;;5053195;28;20040;-72
2023/09/14 06:31:42;;;;;;;11.80;2.90;;;;;;;;;;5053258;28;20070;-71
2023/09/14 06:34:08;;;;;;;9.68;3.00;;;;;;;;;;5052777;28;20467;-73
2023/09/14 06:36:34;;;;;;;11.15;3.08;;;;;;;;;;5053481;28;20438;-72
2023/09/14 06:39:01;;;;;;;11.57;3.30;;;;;;;;;;5054818;28;20037;-75
2023/09/14 06:41:27;;;;;;;18.77;3.75;;;;;;;;;;5056667;28;20044;-75
2023/09/14 06:43:53;;;;;;;16.20;4.60;;;;;;;;;;5055499;28;20029;-72
2023/09/14 06:46:19;;;;;;;20.95;6.22;;;;;;;;;;5052571;28;20032;-72
2023/09/14 06:48:45;;;;;;;23.13;7.53;;;;;;;;;;5054152;28;20560;-71
2023/09/14 06:51:11;;;;;;;25.52;9.93;;;;;;;;;;5056013;28;20032;-74
2023/09/14 06:53:37;;;;;;;35.00;13.07;;;;;;;;;;5053401;28;20036;-71
2023/09/14 06:56:10;;;;;;;28.25;10.70;;;;;;;;;;5054865;28;20017;-71
2023/09/14 06:58:37;;;;;;;28.60;10.20;;;;;;;;;;5058614;28;20399;-73
2023/09/14 07:01:04;;;;;;;28.50;10.73;;;;;;;;;;5057045;28;20029;-74
2023/09/14 07:03:30;;;;;;;27.80;10.98;;;;;;;;;;5058821;28;20086;-71
2023/09/14 07:05:57;;;;;;;25.63;10.27;;;;;;;;;;5059403;28;20025;-78
2023/09/14 07:08:23;;;;;;;19.15;7.03;;;;;;;;;;5052149;28;20033;-75
2023/09/14 07:10:49;;;;;;;14.23;4.60;;;;;;;;;;5052429;28;20085;-69
2023/09/14 07:13:15;;;;;;;12.43;4.20;;;;;;;;;;5052196;28;20025;-71
2023/09/14 07:15:41;;;;;;;14.80;3.75;;;;;;;;;;5054286;28;20025;-70
2023/09/14 07:18:10;;;;;;;37.72;3.80;;;;;;;;;;5052907;28;20459;-72
2023/09/14 07:20:36;;;;;;;18.65;3.20;;;;;;;;;;5052962;28;20039;-73
2023/09/14 07:23:02;;;;;;;16.45;3.08;;;;;;;;;;5052457;28;20029;-74
2023/09/14 07:25:28;;;;;;;15.95;3.20;;;;;;;;;;5051867;28;20032;-72
2023/09/14 07:27:54;;;;;;;19.55;2.40;;;;;;;;;;5053199;28;20035;-71
2023/09/14 07:30:20;;;;;;;9.40;2.67;;;;;;;;;;5050377;28;20086;-70
2023/09/14 07:32:46;;;;;;;13.57;2.72;;;;;;;;;;5052356;28;20044;-71
2023/09/14 07:35:12;;;;;;;9.18;2.45;;;;;;;;;;5052148;28;20043;-70
2023/09/14 07:37:38;;;;;;;12.30;2.25;;;;;;;;;;5052373;28;20438;-73
2023/09/14 07:40:06;;;;;;;9.80;2.00;;;;;;;;;;5052746;28;20021;-71
2023/09/14 07:42:32;;;;;;;11.38;2.42;;;;;;;;;;5052427;28;20037;-71
2023/09/14 07:44:58;;;;;;;9.90;2.50;;;;;;;;;;5052092;28;20116;-70
2023/09/14 07:47:28;;;;;;;9.07;2.17;;;;;;;;;;5051813;28;20108;-70
2023/09/14 07:49:54;;;;;;;9.38;2.63;;;;;;;;;;5051909;28;20037;-70
2023/09/14 07:52:20;;;;;;;11.18;2.53;;;;;;;;;;5051660;28;20564;-71
2023/09/14 07:54:46;;;;;;;7.68;2.00;;;;;;;;;;5051489;28;20017;-75
2023/09/14 07:57:12;;;;;;;8.95;1.60;;;;;;;;;;5051539;28;20101;-71
2023/09/14 07:59:38;;;;;;;9.27;1.73;;;;;;;;;;5051324;28;20599;-70
2023/09/14 08:02:04;;;;;;;6.65;1.90;;;;;;;;;;5050707;28;20029;-70
2023/09/14 08:04:30;;;;;;;11.32;2.38;;;;;;;;;;5050875;28;20059;-72
2023/09/14 08:06:56;;;;;;;12.45;2.10;;;;;;;;;;5050743;28;20490;-71
2023/09/14 08:09:23;;;;;;;6.88;1.60;;;;;;;;;;5051503;28;20025;-71
2023/09/14 08:11:49;;;;;;;15.07;2.17;;;;;;;;;;5051071;28;20427;-71
2023/09/14 08:14:15;;;;;;;8.60;2.60;;;;;;;;;;5051672;28;20036;-71
2023/09/14 08:16:41;;;;;;;6.55;1.35;;;;;;;;;;5052059;28;20052;-70
2023/09/14 08:19:07;;;;;;;9.35;2.03;;;;;;;;;;5054170;28;20037;-76
2023/09/14 08:21:33;;;;;;;10.88;2.35;;;;;;;;;;5053045;28;20566;-76
2023/09/14 08:23:59;;;;;;;12.13;2.60;;;;;;;;;;5054896;28;20064;-74
2023/09/14 08:26:25;;;;;;;15.43;3.03;;;;;;;;;;5052994;28;20052;-74
2023/09/14 08:28:51;;;;;;;7.05;2.20;;;;;;;;;;5052444;28;20088;-76
2023/09/14 08:31:17;;;;;;;5.13;1.67;;;;;;;;;;5051557;28;20104;-75
2023/09/14 08:33:43;;;;;;;11.88;1.50;;;;;;;;;;5054652;28;20495;-74
2023/09/14 08:36:09;;;;;;;11.35;1.75;;;;;;;;;;5059119;28;20021;-75
2023/09/14 08:38:36;;;;;;;8.05;1.95;;;;;;;;;;5056467;28;20044;-75
2023/09/14 08:41:04;;;;;;;6.78;1.63;;;;;;;;;;5055393;28;20407;-72
2023/09/14 08:43:31;;;;;;;6.68;1.40;;;;;;;;;;5054883;28;20490;-72
2023/09/14 08:46:01;;;;;;;7.15;1.75;;;;;;;;;;5055084;28;20391;-71
2023/09/14 08:48:29;;;;;;;6.40;1.88;;;;;;;;;;5055056;28;20495;-72
2023/09/14 08:50:56;;;;;;;7.80;2.60;;;;;;;;;;5055214;28;20021;-71
2023/09/14 08:53:23;;;;;;;5.03;1.30;;;;;;;;;;5054796;28;20130;-71
2023/09/14 08:55:50;;;;;;;10.40;1.95;;;;;;;;;;5054693;28;20514;-72
2023/09/14 08:58:17;;;;;;;5.20;1.65;;;;;;;;;;5054817;28;20483;-73
2023/09/14 09:00:44;;;;;;;4.50;1.30;;;;;;;;;;5054807;28;20037;-76
2023/09/14 09:03:10;;;;;;;11.80;3.28;;;;;;;;;;5059266;28;20036;-72
2023/09/14 09:05:36;;;;;;;6.95;1.30;;;;;;;;;;5057488;28;20021;-73
2023/09/14 09:08:03;;;;;;;8.65;1.40;;;;;;;;;;5055180;28;20026;-73
2023/09/14 09:10:32;;;;;;;7.22;1.38;;;;;;;;;;5056149;28;20086;-73
2023/09/14 09:12:59;;;;;;;5.28;1.27;;;;;;;;;;5056996;28;20029;-72
2023/09/14 09:15:26;;;;;;;7.47;2.00;;;;;;;;;;5058153;28;20509;-72
2023/09/14 09:17:53;;;;;;;8.27;2.03;;;;;;;;;;5059064;28;20534;-72
2023/09/14 09:20:22;;;;;;;5.28;1.50;;;;;;;;;;5060343;28;20024;-73
2023/09/14 09:22:49;;;;;;;9.00;1.48;;;;;;;;;;5064435;28;20029;-73
2023/09/14 09:25:15;;;;;;;5.70;1.08;;;;;;;;;;5055139;28;20033;-71
2023/09/14 09:27:41;;;;;;;3.20;1.15;;;;;;;;;;5055222;28;20399;-73
2023/09/14 09:30:10;;;;;;;7.20;1.25;;;;;;;;;;5055594;28;20109;-72
2023/09/14 09:32:37;;;;;;;5.57;1.08;;;;;;;;;;5055628;28;20025;-71
2023/09/14 09:35:17;;;;;;;6.50;1.25;;;;;;;;;;5053426;28;20021;-71
2023/09/14 09:37:43;;;;;;;6.38;1.40;;;;;;;;;;5054174;28;20239;-71
2023/09/14 09:40:12;;;;;;;5.80;1.67;;;;;;;;;;5054649;28;20040;-71
2023/09/14 09:42:38;;;;;;;14.07;1.65;;;;;;;;;;5054458;28;20131;-71
2023/09/14 09:45:05;;;;;;;6.55;1.30;;;;;;;;;;5057999;28;20433;-72
2023/09/14 09:47:37;;;;;;;33.30;19.90;;;;;;;;;;5054337;28;20487;-74
2023/09/14 09:50:10;;;;;;;32.25;21.30;;;;;;;;;;5057138;28;20052;-72
2023/09/14 09:52:37;;;;;;;14.70;4.78;;;;;;;;;;5055931;28;20436;-72
2023/09/14 09:55:04;;;;;;;14.70;4.15;;;;;;;;;;5055275;28;20112;-73
2023/09/14 09:57:30;;;;;;;8.82;2.47;;;;;;;;;;5060563;28;20052;-73
2023/09/14 09:59:57;;;;;;;5.15;1.50;;;;;;;;;;5055037;28;20387;-76
2023/09/14 10:02:33;;;;;;;18.80;3.55;;;;;;;;;;5057195;28;20382;-73
2023/09/14 10:04:59;;;;;;;13.10;3.40;;;;;;;;;;5054922;28;20036;-71
2023/09/14 10:07:25;;;;;;;7.80;1.63;;;;;;;;;;5055151;28;20033;-73
2023/09/14 10:09:54;;;;;;;5.47;1.58;;;;;;;;;;5054331;28;20025;-75
2023/09/14 10:12:30;;;;;;;6.85;1.20;;;;;;;;;;5055030;28;20029;-72
2023/09/14 10:15:00;;;;;;;15.93;4.22;;;;;;;;;;5054836;28;20029;-71
2023/09/14 10:17:30;;;;;;;7.95;3.47;;;;;;;;;;5053431;28;20055;-72
2023/09/14 10:19:58;;;;;;;13.07;3.35;;;;;;;;;;5053887;28;20075;-71
2023/09/14 10:22:25;;;;;;;6.53;1.70;;;;;;;;;;5054308;28;20083;-70
2023/09/14 10:24:51;;;;;;;12.18;4.57;;;;;;;;;;5052849;28;20051;-71
2023/09/14 10:27:17;;;;;;;22.65;6.32;;;;;;;;;;5053795;28;20060;-70
2023/09/14 10:29:44;;;;;;;24.33;9.40;;;;;;;;;;5053770;28;20342;-71
2023/09/14 10:32:15;;;;;;;11.32;2.25;;;;;;;;;;5054241;28;20052;-72
2023/09/14 10:34:41;;;;;;;14.55;5.85;;;;;;;;;;5053607;28;20044;-71
2023/09/14 10:37:08;;;;;;;13.10;5.53;;;;;;;;;;5052809;28;20017;-70
2023/09/14 10:39:34;;;;;;;5.85;1.50;;;;;;;;;;5053985;28;20422;-71
2023/09/14 10:42:01;;;;;;;8.15;3.00;;;;;;;;;;5052961;28;20080;-72
2023/09/14 10:44:28;;;;;;;9.73;2.70;;;;;;;;;;5053002;28;20450;-70
2023/09/14 10:46:56;;;;;;;7.55;1.60;;;;;;;;;;5052864;28;20100;-71
2023/09/14 10:49:35;;;;;;;6.90;2.30;;;;;;;;;;5052438;28;20053;-69
2023/09/14 10:52:01;;;;;;;10.63;2.50;;;;;;;;;;5052432;28;20100;-70
2023/09/14 10:54:31;;;;;;;8.70;2.05;;;;;;;;;;5053796;28;20036;-71
2023/09/14 10:56:59;;;;;;;8.10;1.85;;;;;;;;;;5055501;28;20476;-71
2023/09/14 10:59:44;;;;;;;7.72;1.65;;;;;;;;;;5055298;28;20489;-72
2023/09/14 11:02:10;;;;;;;8.60;2.58;;;;;;;;;;5055604;28;20061;-71
2023/09/14 11:04:56;;;;;;;5.18;1.58;;;;;;;;;;5055971;28;20434;-70
2023/09/14 11:07:41;;;;;;;8.38;1.80;;;;;;;;;;5056680;28;20037;-70
2023/09/14 11:10:07;;;;;;;5.10;1.30;;;;;;;;;;5053402;28;20096;-72
2023/09/14 11:12:33;;;;;;;10.32;1.60;;;;;;;;;;5053537;28;20040;-72
2023/09/14 11:15:20;;;;;;;9.55;1.50;;;;;;;;;;5052748;28;20024;-71
2023/09/14 11:17:47;;;;;;;8.48;1.30;;;;;;;;;;5052083;28;20024;-72
2023/09/14 11:20:25;;;;;;;3.47;1.17;;;;;;;;;;5052773;28;20395;-73
2023/09/14 11:22:52;;;;;;;8.73;1.48;;;;;;;;;;5052337;28;20331;-71
2023/09/14 11:25:31;;;;;;;7.47;1.10;;;;;;;;;;5052392;28;20040;-72
2023/09/14 11:27:57;;;;;;;4.88;1.20;;;;;;;;;;5052121;28;20027;-71
2023/09/14 11:30:30;;;;;;;6.63;1.45;;;;;;;;;;5051996;28;20036;-71
2023/09/14 11:32:57;;;;;;;6.90;1.15;;;;;;;;;;5052177;28;20048;-71
2023/09/14 11:35:53;;;;;;;7.50;1.35;;;;;;;;;;5051827;28;20139;-73
2023/09/14 11:38:28;;;;;;;3.85;1.30;;;;;;;;;;5043355;28;20399;-70
2023/09/14 11:40:54;;;;;;;4.70;1.42;;;;;;;;;;5051646;28;20103;-71
2023/09/14 11:43:21;;;;;;;6.93;1.67;;;;;;;;;;5051359;28;20025;-71
2023/09/14 11:45:48;;;;;;;8.10;1.58;;;;;;;;;;5051506;28;20039;-72
2023/09/14 11:48:14;;;;;;;5.07;1.38;;;;;;;;;;5051731;28;20017;-70
2023/09/14 11:50:44;;;;;;;5.13;1.20;;;;;;;;;;5051321;28;20031;-71
2023/09/14 11:53:12;;;;;;;5.15;1.17;;;;;;;;;;5051069;28;20387;-71
2023/09/14 11:55:39;;;;;;;3.08;1.17;;;;;;;;;;5051647;28;20025;-72
2023/09/14 11:58:06;;;;;;;4.20;1.20;;;;;;;;;;5051456;28;20067;-72
2023/09/14 12:00:38;;;;;;;7.45;1.52;;;;;;;;;;5051641;28;20032;-77
2023/09/14 12:03:06;;;;;;;6.03;1.48;;;;;;;;;;5051795;28;20036;-73
2023/09/14 12:05:32;;;;;;;3.85;1.20;;;;;;;;;;5051523;28;20029;-72
2023/09/14 12:07:59;;;;;;;4.88;1.48;;;;;;;;;;5051609;28;20501;-76
2023/09/14 12:10:25;;;;;;;11.02;1.45;;;;;;;;;;5051335;28;20422;-72
2023/09/14 12:12:51;;;;;;;4.70;1.20;;;;;;;;;;5051449;28;20035;-71
2023/09/14 12:15:20;;;;;;;6.00;1.42;;;;;;;;;;5051547;28;20021;-72
2023/09/14 12:17:53;;;;;;;8.93;1.63;;;;;;;;;;5051656;28;20017;-71
2023/09/14 12:20:19;;;;;;;6.47;1.10;;;;;;;;;;5051670;28;20104;-72
2023/09/14 12:22:46;;;;;;;3.92;1.13;;;;;;;;;;5051444;28;20021;-72
2023/09/14 12:25:14;;;;;;;4.20;1.33;;;;;;;;;;5050898;28;20028;-71
2023/09/14 12:27:40;;;;;;;5.45;1.35;;;;;;;;;;5051272;28;20052;-73
2023/09/14 12:30:07;;;;;;;5.00;1.25;;;;;;;;;;5051599;28;20040;-72
2023/09/14 12:32:35;;;;;;;6.22;1.38;;;;;;;;;;5050841;28;20054;-72
2023/09/14 12:35:01;;;;;;;9.38;1.60;;;;;;;;;;5049613;28;20033;-71
2023/09/14 12:37:27;;;;;;;4.88;1.20;;;;;;;;;;5050677;28;20074;-72
2023/09/14 12:39:54;;;;;;;6.60;1.80;;;;;;;;;;5050687;28;20025;-71
2023/09/14 12:42:21;;;;;;;5.43;1.33;;;;;;;;;;5050822;28;20043;-72
2023/09/14 12:44:47;;;;;;;4.63;1.50;;;;;;;;;;5050850;28;20388;-71
2023/09/14 12:47:14;;;;;;;4.97;1.10;;;;;;;;;;5051127;28;20087;-72
2023/09/14 12:49:40;;;;;;;5.75;1.00;;;;;;;;;;5050780;28;20033;-71
2023/09/14 12:52:06;;;;;;;6.88;1.45;;;;;;;;;;5051139;28;20184;-74
2023/09/14 12:54:33;;;;;;;5.03;1.15;;;;;;;;;;5051517;28;20017;-71
2023/09/14 12:56:59;;;;;;;4.05;1.30;;;;;;;;;;5051227;28;20430;-73
2023/09/14 12:59:26;;;;;;;17.10;5.47;;;;;;;;;;5051103;28;20041;-70
2023/09/14 13:01:52;;;;;;;9.45;2.08;;;;;;;;;;5050901;28;20033;-70
2023/09/14 13:04:18;;;;;;;6.72;1.50;;;;;;;;;;5049223;28;20499;-72
2023/09/14 13:06:44;;;;;;;6.97;1.80;;;;;;;;;;5061999;28;20040;-72
2023/09/14 13:09:15;;;;;;;9.55;2.13;;;;;;;;;;5063834;28;20029;-72
2023/09/14 13:11:41;;;;;;;5.20;1.67;;;;;;;;;;5065869;28;20403;-72
2023/09/14 13:14:07;;;;;;;6.80;1.92;;;;;;;;;;5050572;28;20021;-71
2023/09/14 13:16:33;;;;;;;5.43;1.20;;;;;;;;;;5063687;28;20082;-73
2023/09/14 13:19:00;;;;;;;3.85;1.40;;;;;;;;;;5062047;28;20070;-71
2023/09/14 13:21:26;;;;;;;5.72;1.73;;;;;;;;;;5057016;28;20496;-71
2023/09/14 13:23:53;;;;;;;6.28;1.40;;;;;;;;;;5062062;28;20460;-71
2023/09/14 13:26:20;;;;;;;8.55;1.25;;;;;;;;;;5073782;28;20446;-71
2023/09/14 13:28:46;;;;;;;9.07;1.90;;;;;;;;;;5066393;28;20047;-71
2023/09/14 13:31:13;;;;;;;14.23;7.30;;;;;;;;;;5061644;28;20029;-70
2023/09/14 13:33:39;;;;;;;5.25;1.77;;;;;;;;;;5070895;28;20025;-71
2023/09/14 13:36:06;;;;;;;5.55;1.88;;;;;;;;;;5069465;28;20033;-71
2023/09/14 13:38:33;;;;;;;6.10;2.20;;;;;;;;;;5066700;28;20021;-70
2023/09/14 13:40:59;;;;;;;5.47;1.90;;;;;;;;;;5057437;28;20113;-70
2023/09/14 13:43:26;;;;;;;5.30;1.77;;;;;;;;;;5064735;28;20024;-70
2023/09/14 13:45:52;;;;;;;9.80;1.88;;;;;;;;;;5066462;28;20029;-69
2023/09/14 13:48:19;;;;;;;9.18;1.55;;;;;;;;;;5065879;28;20053;-71
2023/09/14 13:50:45;;;;;;;12.95;4.10;;;;;;;;;;5059938;28;20182;-70
2023/09/14 13:53:11;;;;;;;7.82;1.92;;;;;;;;;;5069748;28;20028;-71
2023/09/14 13:55:39;;;;;;;4.40;1.27;;;;;;;;;;5070043;28;20028;-71
2023/09/14 13:58:06;;;;;;;4.13;1.38;;;;;;;;;;5054847;28;20051;-71
2023/09/14 14:00:33;;;;;;;8.93;1.48;;;;;;;;;;5053568;28;20067;-71
2023/09/14 14:03:09;;;;;;;6.57;1.30;;;;;;;;;;5053560;28;20434;-71
2023/09/14 14:05:35;;;;;;;9.18;5.68;;;;;;;;;;5053452;28;20448;-72
2023/09/14 14:08:04;;;;;;;7.68;1.50;;;;;;;;;;5053344;28;20035;-71
2023/09/14 14:10:30;;;;;;;5.95;1.80;;;;;;;;;;5053315;28;20021;-71
2023/09/14 14:12:56;;;;;;;6.57;2.28;;;;;;;;;;5053325;28;20399;-72
2023/09/14 14:15:23;;;;;;;5.53;1.40;;;;;;;;;;5052936;28;20048;-72
2023/09/14 14:17:49;;;;;;;6.82;1.23;;;;;;;;;;5053606;28;20376;-73
2023/09/14 14:20:16;;;;;;;8.35;1.95;;;;;;;;;;5053203;28;20036;-72
2023/09/14 14:22:41;;;;;;;12.10;2.17;;;;;;;;;;5052763;28;20083;-71
2023/09/14 14:25:08;;;;;;;11.82;2.03;;;;;;;;;;5052766;28;20037;-73
2023/09/14 14:27:38;;;;;;;8.27;1.67;;;;;;;;;;5053190;28;20040;-71
2023/09/14 14:30:05;;;;;;;7.82;1.88;;;;;;;;;;5053174;28;20028;-72
2023/09/14 14:32:31;;;;;;;8.20;2.00;;;;;;;;;;5051869;28;20021;-73
2023/09/14 14:34:57;;;;;;;6.75;2.50;;;;;;;;;;5053422;28;20021;-73
2023/09/14 14:37:23;;;;;;;6.60;1.55;;;;;;;;;;5053168;28;20086;-71